WetterOnline ( http://www.wetteronline.de )

Wetter aktuell Hittbergen

Aktuelles Wetter: Boizenburg (46m)

6-stündlich | Neueste Meldungen
Ortszeit Temperatur Wetter
Fr, 21.09. 20:00 13.4° C wolkig
Fr, 21.09. 14:00 -° C Regen
Fr, 21.09. 8:00 19.7° C bedeckt
Fr, 21.09. 2:00 17.1° C bedeckt
Do, 20.09. 20:00 21.5° C wolkig
Do, 20.09. 14:00 24.4° C bewölkt
Do, 20.09. 8:00 16.8° C wolkig
Do, 20.09. 2:00 19.7° C wolkig
Ortszeit Temperatur Wetter
Fr, 21.09. 23:00 11.4° C wolkig
Fr, 21.09. 22:50 11.4° C wolkig
Fr, 21.09. 22:40 11.8° C wolkig
Fr, 21.09. 22:30 12.5° C wolkig
Fr, 21.09. 22:20 12.5° C wolkig
Fr, 21.09. 22:10 12.6° C bewölkt
Fr, 21.09. 22:00 12.5° C bewölkt
Fr, 21.09. 21:30 13.1° C bewölkt
Fr, 21.09. 21:00 12.7° C leicht bewölkt
Fr, 21.09. 20:30 12.9° C fast wolkenlos
Fr, 21.09. 20:00 13.4° C wolkig
Ortszeit Relative Feuchte Sichtweite
Fr, 21.09. 20:00 70% 65 km
Fr, 21.09. 14:00 - 4.3 km
Fr, 21.09. 8:00 64% 35 km
Fr, 21.09. 2:00 67% 35 km
Do, 20.09. 20:00 54% 40 km
Do, 20.09. 14:00 45% 50 km
Do, 20.09. 8:00 74% 30 km
Do, 20.09. 2:00 62% 26 km
Ortszeit Relative Feuchte Sichtweite
Fr, 21.09. 23:00 65% 70 km
Fr, 21.09. 22:50 65% -
Fr, 21.09. 22:40 63% -
Fr, 21.09. 22:30 60% 70 km
Fr, 21.09. 22:20 60% -
Fr, 21.09. 22:10 59% -
Fr, 21.09. 22:00 59% 70 km
Fr, 21.09. 21:30 57% 70 km
Fr, 21.09. 21:00 65% 70 km
Fr, 21.09. 20:30 66% 70 km
Fr, 21.09. 20:00 70% 65 km
Ortszeit Niederschlagsmenge Niederschlagsart
Fr, 21.09. 20:00 3 l/m2 in 12 Std. Regen
Fr, 21.09. 14:00 0.6 l/m2 in 6 Std. Regen
Fr, 21.09. 8:00 0.0 l/m2 in 12 Std. -
Fr, 21.09. 2:00 0.0 l/m2 in 6 Std. -
Do, 20.09. 20:00 0.0 l/m2 in 12 Std. -
Do, 20.09. 14:00 0.0 l/m2 in 6 Std. -
Do, 20.09. 8:00 0.0 l/m2 in 12 Std. -
Do, 20.09. 2:00 0.0 l/m2 in 6 Std. -
Ortszeit Niederschlagsmenge Niederschlagsart
Fr, 21.09. 23:00 0.0 l/m2 in 1 Std. -
Fr, 21.09. 22:50 keine Meldung -
Fr, 21.09. 22:40 keine Meldung -
Fr, 21.09. 22:30 0.0 l/m2 in 1 Std. -
Fr, 21.09. 22:20 keine Meldung -
Fr, 21.09. 22:10 keine Meldung -
Fr, 21.09. 22:00 0.0 l/m2 in 1 Std. -
Fr, 21.09. 21:30 0.0 l/m2 in 1 Std. -
Fr, 21.09. 21:00 0.0 l/m2 in 1 Std. -
Fr, 21.09. 20:30 0.0 l/m2 in 1 Std. -
Fr, 21.09. 20:00 0.0 l/m2 in 1 Std. Regen
Ortszeit Stärke Spitze Richtung
km/h Bft. km/h Grad Sektor
Fr, 21.09. 20:00 14 3 54 230° SW
Fr, 21.09. 14:00 33 5 65 250° W
Fr, 21.09. 8:00 13 3 37 150° SO
Fr, 21.09. 2:00 9 2 20 140° SO
Do, 20.09. 20:00 7 2 40 190° S
Do, 20.09. 14:00 25 4 43 210° SW
Do, 20.09. 8:00 13 3 30 190° S
Do, 20.09. 2:00 14 3 25 210° SW
Ortszeit Stärke Spitze Richtung
km/h Bft. km/h Grad Sektor
Fr, 21.09. 23:00 26 4 52 230° SW
Fr, 21.09. 22:50 26 4 - 230° SW
Fr, 21.09. 22:40 26 4 - 230° SW
Fr, 21.09. 22:30 25 4 54 230° SW
Fr, 21.09. 22:20 25 4 - 230° SW
Fr, 21.09. 22:10 25 4 - 230° SW
Fr, 21.09. 22:00 15 3 37 220° SW
Fr, 21.09. 21:30 22 4 36 230° SW
Fr, 21.09. 21:00 15 3 30 230° SW
Fr, 21.09. 20:30 17 3 26 230° SW
Fr, 21.09. 20:00 14 3 29 230° SW
Ortszeit Untergrenze Bedeckung Gattung
total tief tief mittel hoch
Fr, 21.09. 20:00 1410 m 5/8 5/8 - - -
Fr, 21.09. 14:00 810 m 7/8 7/8 - - -
Fr, 21.09. 8:00 6900 m 8/8 8/8 - - -
Fr, 21.09. 2:00 5700 m 8/8 8/8 - - -
Do, 20.09. 20:00 10500 m 7/8 0/8 - - -
Do, 20.09. 14:00 1500 m 7/8 7/8 - - -
Do, 20.09. 8:00 9000 m 7/8 0/8 - - -
Do, 20.09. 2:00 8100 m 8/8 0/8 - - -
Ortszeit Bedeckungsgrad in Achtel und Wolkenuntergrenze
Fr, 21.09. 23:00 1(2100m) 7(4800m) 7(5700m)
Fr, 21.09. 22:50 1(2100m) 7(4800m) 7(5700m)
Fr, 21.09. 22:40 2(2100m) 7(3900m) 7(4200m)
Fr, 21.09. 22:30 2(2100m) 5(4200m) 6(5700m)
Fr, 21.09. 22:20 2(2100m) 5(4200m) 6(5700m)
Fr, 21.09. 22:10 1(1410m) 6(2400m) 7(5400m)
Fr, 21.09. 22:00 4(1440m) 5(1500m) 7(2100m)
Fr, 21.09. 21:30 6(1800m) 7(2100m) 7(2100m)
Fr, 21.09. 21:00 2(1800m)
Fr, 21.09. 20:30 1(2400m)
Fr, 21.09. 20:00 1(1410m) 5(2100m) 5(2100m)
Ortszeit Luftdruck NN (hPa) Tendenz (hPa in 3 Std.)
Fr, 21.09. 20:00 1007 + 2,1
Fr, 21.09. 14:00 1003 + 1,0
Fr, 21.09. 8:00 1003 - 3,4
Fr, 21.09. 2:00 1009 - 2,6
Do, 20.09. 20:00 1013 - 0,7
Do, 20.09. 14:00 1015 - 1,5
Do, 20.09. 8:00 1017 + 0,5
Do, 20.09. 2:00 1016 + 0,4
Ortszeit Luftdruck NN (hPa) Tendenz (hPa in 3 Std.)
Fr, 21.09. 23:00 1009 + 2,6
Fr, 21.09. 22:50 1009 keine Meldung
Fr, 21.09. 22:40 1009 keine Meldung
Fr, 21.09. 22:30 1009 + 2,9
Fr, 21.09. 22:20 1009 keine Meldung
Fr, 21.09. 22:10 1009 keine Meldung
Fr, 21.09. 22:00 1009 + 2,8
Fr, 21.09. 21:30 1008 + 3,0
Fr, 21.09. 21:00 1008 + 2,3
Fr, 21.09. 20:30 1007 + 2,3
Fr, 21.09. 20:00 1007 + 2,1
Ortszeit Schneehöhe (cm)
Fr, 21.09. 20:00 -
Fr, 21.09. 14:00 -
Fr, 21.09. 8:00 -
Fr, 21.09. 2:00 -
Do, 20.09. 20:00 -
Do, 20.09. 14:00 -
Do, 20.09. 8:00 -
Do, 20.09. 2:00 -
Ortszeit Schneehöhe (cm)
Fr, 21.09. 23:00 -
Fr, 21.09. 22:50 -
Fr, 21.09. 22:40 -
Fr, 21.09. 22:30 -
Fr, 21.09. 22:20 -
Fr, 21.09. 22:10 -
Fr, 21.09. 22:00 -
Fr, 21.09. 21:30 -
Fr, 21.09. 21:00 -
Fr, 21.09. 20:30 -
Fr, 21.09. 20:00 -
Link zu dieser Seite / Seite empfehlen

Das Wetter in ...